sensor_id;sensor_type;location;lat;lon;timestamp;pressure;altitude;pressure_sealevel;temperature;humidity
69239;BME280;56349;51.816;-0.026;2023-02-17T00:02:10;101285.71;;;23.43;33.35
69239;BME280;56349;51.816;-0.026;2023-02-17T00:04:36;101284.66;;;23.56;33.44
69239;BME280;56349;51.816;-0.026;2023-02-17T00:07:02;101283.71;;;23.43;33.61
69239;BME280;56349;51.816;-0.026;2023-02-17T00:09:28;101282.36;;;23.32;33.80
69239;BME280;56349;51.816;-0.026;2023-02-17T00:11:54;101291.67;;;23.21;33.91
69239;BME280;56349;51.816;-0.026;2023-02-17T00:14:20;101295.75;;;23.10;34.07
69239;BME280;56349;51.816;-0.026;2023-02-17T00:16:46;101292.26;;;23.01;34.15
69239;BME280;56349;51.816;-0.026;2023-02-17T00:19:12;101290.33;;;22.92;34.23
69239;BME280;56349;51.816;-0.026;2023-02-17T00:21:38;101295.12;;;22.84;34.34
69239;BME280;56349;51.816;-0.026;2023-02-17T00:24:04;101289.49;;;23.02;34.49
69239;BME280;56349;51.816;-0.026;2023-02-17T00:26:29;101288.53;;;22.66;34.60
69239;BME280;56349;51.816;-0.026;2023-02-17T00:28:57;101291.97;;;22.60;34.69
69239;BME280;56349;51.816;-0.026;2023-02-17T00:31:22;101292.55;;;22.54;34.76
69239;BME280;56349;51.816;-0.026;2023-02-17T00:33:46;101286.83;;;22.48;34.85
69239;BME280;56349;51.816;-0.026;2023-02-17T00:36:12;101288.44;;;22.91;34.90
69239;BME280;56349;51.816;-0.026;2023-02-17T00:38:36;101287.95;;;22.84;35.02
69239;BME280;56349;51.816;-0.026;2023-02-17T00:41:02;101288.35;;;22.55;35.11
69239;BME280;56349;51.816;-0.026;2023-02-17T00:43:27;101288.79;;;22.22;35.20
69239;BME280;56349;51.816;-0.026;2023-02-17T00:45:53;101292.00;;;22.16;35.30
69239;BME280;56349;51.816;-0.026;2023-02-17T00:48:18;101293.48;;;22.59;35.32
69239;BME280;56349;51.816;-0.026;2023-02-17T00:50:45;101295.65;;;22.05;35.40
69239;BME280;56349;51.816;-0.026;2023-02-17T00:53:10;101292.47;;;22.28;35.47
69239;BME280;56349;51.816;-0.026;2023-02-17T00:55:36;101295.61;;;22.46;35.54
69239;BME280;56349;51.816;-0.026;2023-02-17T00:58:02;101290.18;;;22.42;35.58
69239;BME280;56349;51.816;-0.026;2023-02-17T01:00:35;101289.98;;;22.35;35.68
69239;BME280;56349;51.816;-0.026;2023-02-17T01:02:54;101287.67;;;22.28;35.75
69239;BME280;56349;51.816;-0.026;2023-02-17T01:05:19;101286.19;;;22.22;35.83
69239;BME280;56349;51.816;-0.026;2023-02-17T01:07:46;101279.51;;;21.94;35.90
69239;BME280;56349;51.816;-0.026;2023-02-17T01:10:12;101282.74;;;22.13;35.94
69239;BME280;56349;51.816;-0.026;2023-02-17T01:12:37;101279.66;;;22.09;35.98
69239;BME280;56349;51.816;-0.026;2023-02-17T01:15:02;101273.98;;;22.05;36.03
69239;BME280;56349;51.816;-0.026;2023-02-17T01:17:28;101272.78;;;22.03;36.07
69239;BME280;56349;51.816;-0.026;2023-02-17T01:19:54;101274.43;;;22.22;36.10
69239;BME280;56349;51.816;-0.026;2023-02-17T01:22:20;101278.02;;;22.17;36.14
69239;BME280;56349;51.816;-0.026;2023-02-17T01:24:46;101273.30;;;21.92;36.19
69239;BME280;56349;51.816;-0.026;2023-02-17T01:27:12;101272.16;;;21.87;36.23
69239;BME280;56349;51.816;-0.026;2023-02-17T01:29:38;101277.70;;;21.84;36.27
69239;BME280;56349;51.816;-0.026;2023-02-17T01:32:04;101274.65;;;22.03;36.30
69239;BME280;56349;51.816;-0.026;2023-02-17T01:34:29;101265.39;;;21.76;36.32
69239;BME280;56349;51.816;-0.026;2023-02-17T01:36:55;101262.40;;;21.72;36.38
69239;BME280;56349;51.816;-0.026;2023-02-17T01:39:21;101260.52;;;21.92;36.41
69239;BME280;56349;51.816;-0.026;2023-02-17T01:41:47;101256.72;;;21.66;36.45
69239;BME280;56349;51.816;-0.026;2023-02-17T01:44:15;101254.28;;;21.63;36.48
69239;BME280;56349;51.816;-0.026;2023-02-17T01:46:41;101246.21;;;21.82;36.48
69239;BME280;56349;51.816;-0.026;2023-02-17T01:49:14;101244.40;;;21.80;36.51
69239;BME280;56349;51.816;-0.026;2023-02-17T01:51:34;101244.23;;;21.54;36.52
69239;BME280;56349;51.816;-0.026;2023-02-17T01:53:59;101239.53;;;22.02;36.54
69239;BME280;56349;51.816;-0.026;2023-02-17T01:56:23;101240.84;;;21.51;36.53
69239;BME280;56349;51.816;-0.026;2023-02-17T01:58:50;101238.75;;;21.70;36.57
69239;BME280;56349;51.816;-0.026;2023-02-17T02:01:12;101237.93;;;21.67;36.58
69239;BME280;56349;51.816;-0.026;2023-02-17T02:03:37;101234.13;;;21.64;36.62
69239;BME280;56349;51.816;-0.026;2023-02-17T02:06:06;101231.77;;;21.40;36.66
69239;BME280;56349;51.816;-0.026;2023-02-17T02:08:33;101232.20;;;21.61;36.66
69239;BME280;56349;51.816;-0.026;2023-02-17T02:10:53;101229.98;;;21.58;36.69
69239;BME280;56349;51.816;-0.026;2023-02-17T02:13:19;101236.00;;;21.54;36.69
69239;BME280;56349;51.816;-0.026;2023-02-17T02:15:50;101228.32;;;21.77;36.74
69239;BME280;56349;51.816;-0.026;2023-02-17T02:23:14;101236.68;;;21.57;36.63
69239;BME280;56349;51.816;-0.026;2023-02-17T02:25:44;101232.25;;;21.56;36.63
69239;BME280;56349;51.816;-0.026;2023-02-17T02:27:57;101224.49;;;21.52;36.68
69239;BME280;56349;51.816;-0.026;2023-02-17T02:32:48;101229.77;;;21.48;36.67
69239;BME280;56349;51.816;-0.026;2023-02-17T02:35:15;101234.42;;;21.46;36.69
69239;BME280;56349;51.816;-0.026;2023-02-17T02:37:39;101231.67;;;21.22;36.70
69239;BME280;56349;51.816;-0.026;2023-02-17T02:40:04;101236.89;;;21.69;36.72
69239;BME280;56349;51.816;-0.026;2023-02-17T02:42:26;101244.13;;;21.39;36.76
69239;BME280;56349;51.816;-0.026;2023-02-17T02:44:51;101242.29;;;21.36;36.77
69239;BME280;56349;51.816;-0.026;2023-02-17T02:49:43;101244.05;;;21.57;36.83
69239;BME280;56349;51.816;-0.026;2023-02-17T02:52:14;101244.64;;;21.28;36.83
69239;BME280;56349;51.816;-0.026;2023-02-17T02:54:40;101248.83;;;21.28;36.84
69239;BME280;56349;51.816;-0.026;2023-02-17T02:57:13;101248.93;;;21.27;36.83
69239;BME280;56349;51.816;-0.026;2023-02-17T02:59:36;101246.69;;;21.03;36.83
69239;BME280;56349;51.816;-0.026;2023-02-17T03:01:59;101242.30;;;21.51;36.85
69239;BME280;56349;51.816;-0.026;2023-02-17T03:04:24;101241.49;;;21.20;36.88
69239;BME280;56349;51.816;-0.026;2023-02-17T03:06:47;101243.85;;;21.15;36.93
69239;BME280;56349;51.816;-0.026;2023-02-17T03:09:11;101238.67;;;21.14;36.94
69239;BME280;56349;51.816;-0.026;2023-02-17T03:11:34;101235.62;;;21.12;36.94
69239;BME280;56349;51.816;-0.026;2023-02-17T03:14:02;101231.46;;;21.09;36.96
69239;BME280;56349;51.816;-0.026;2023-02-17T03:16:26;101238.55;;;21.33;36.97
69239;BME280;56349;51.816;-0.026;2023-02-17T03:18:52;101239.59;;;21.31;36.96
69239;BME280;56349;51.816;-0.026;2023-02-17T03:21:18;101232.56;;;20.81;36.96
69239;BME280;56349;51.816;-0.026;2023-02-17T03:23:44;101228.44;;;21.27;36.98
69239;BME280;56349;51.816;-0.026;2023-02-17T03:26:10;101224.52;;;21.00;36.98
69239;BME280;56349;51.816;-0.026;2023-02-17T03:28:36;101221.45;;;20.98;36.99
69239;BME280;56349;51.816;-0.026;2023-02-17T03:31:02;101217.94;;;21.23;37.00
69239;BME280;56349;51.816;-0.026;2023-02-17T03:33:27;101221.76;;;21.20;37.04
69239;BME280;56349;51.816;-0.026;2023-02-17T03:35:53;101219.14;;;21.18;37.06
69239;BME280;56349;51.816;-0.026;2023-02-17T03:38:19;101215.41;;;21.16;37.07
69239;BME280;56349;51.816;-0.026;2023-02-17T03:40:45;101217.65;;;21.13;37.07
69239;BME280;56349;51.816;-0.026;2023-02-17T03:43:11;101218.04;;;21.11;37.09
69239;BME280;56349;51.816;-0.026;2023-02-17T03:45:37;101223.46;;;21.09;37.11
69239;BME280;56349;51.816;-0.026;2023-02-17T03:48:03;101221.42;;;21.07;37.14
69239;BME280;56349;51.816;-0.026;2023-02-17T03:50:29;101218.95;;;21.05;37.14
69239;BME280;56349;51.816;-0.026;2023-02-17T03:52:54;101219.33;;;21.03;37.14
69239;BME280;56349;51.816;-0.026;2023-02-17T03:55:20;101217.47;;;21.02;37.15
69239;BME280;56349;51.816;-0.026;2023-02-17T03:57:46;101212.85;;;21.01;37.11
69239;BME280;56349;51.816;-0.026;2023-02-17T04:00:13;101204.16;;;21.01;37.10
69239;BME280;56349;51.816;-0.026;2023-02-17T04:02:38;101206.03;;;21.00;37.11
69239;BME280;56349;51.816;-0.026;2023-02-17T04:05:04;101212.72;;;20.98;37.13
69239;BME280;56349;51.816;-0.026;2023-02-17T04:07:29;101214.93;;;20.97;37.12
69239;BME280;56349;51.816;-0.026;2023-02-17T04:09:55;101223.20;;;20.95;37.15
69239;BME280;56349;51.816;-0.026;2023-02-17T04:12:21;101214.78;;;20.92;37.16
69239;BME280;56349;51.816;-0.026;2023-02-17T04:14:47;101217.69;;;20.90;37.16
69239;BME280;56349;51.816;-0.026;2023-02-17T04:17:13;101223.10;;;20.90;37.17
69239;BME280;56349;51.816;-0.026;2023-02-17T04:19:39;101226.40;;;20.89;37.15
69239;BME280;56349;51.816;-0.026;2023-02-17T04:22:04;101232.44;;;20.88;37.09
69239;BME280;56349;51.816;-0.026;2023-02-17T04:24:30;101227.12;;;20.86;37.12
69239;BME280;56349;51.816;-0.026;2023-02-17T04:26:56;101227.37;;;20.84;37.10
69239;BME280;56349;51.816;-0.026;2023-02-17T04:29:22;101230.09;;;20.82;37.09
69239;BME280;56349;51.816;-0.026;2023-02-17T04:31:48;101229.30;;;20.82;37.13
69239;BME280;56349;51.816;-0.026;2023-02-17T04:34:14;101223.26;;;20.86;37.14
69239;BME280;56349;51.816;-0.026;2023-02-17T04:36:40;101232.67;;;20.97;37.16
69239;BME280;56349;51.816;-0.026;2023-02-17T04:39:06;101229.21;;;21.13;37.09
69239;BME280;56349;51.816;-0.026;2023-02-17T04:41:32;101234.65;;;21.03;36.99
69239;BME280;56349;51.816;-0.026;2023-02-17T04:43:58;101232.32;;;21.03;36.83
69239;BME280;56349;51.816;-0.026;2023-02-17T04:46:24;101226.23;;;21.25;36.50
69239;BME280;56349;51.816;-0.026;2023-02-17T04:48:50;101226.02;;;21.45;36.20
69239;BME280;56349;51.816;-0.026;2023-02-17T04:51:16;101224.84;;;21.61;35.92
69239;BME280;56349;51.816;-0.026;2023-02-17T04:53:42;101228.59;;;21.25;35.72
69239;BME280;56349;51.816;-0.026;2023-02-17T04:56:08;101232.04;;;21.81;35.57
69239;BME280;56349;51.816;-0.026;2023-02-17T04:58:34;101233.13;;;21.84;35.45
69239;BME280;56349;51.816;-0.026;2023-02-17T05:01:00;101234.49;;;21.85;35.37
69239;BME280;56349;51.816;-0.026;2023-02-17T05:03:26;101236.26;;;21.84;35.29
69239;BME280;56349;51.816;-0.026;2023-02-17T05:05:52;101220.38;;;21.81;35.21
69239;BME280;56349;51.816;-0.026;2023-02-17T05:08:18;101230.82;;;21.76;35.21
69239;BME280;56349;51.816;-0.026;2023-02-17T05:10:44;101222.16;;;21.94;35.27
69239;BME280;56349;51.816;-0.026;2023-02-17T05:13:10;101215.93;;;21.90;35.35
69239;BME280;56349;51.816;-0.026;2023-02-17T05:15:36;101219.99;;;21.65;35.47
69239;BME280;56349;51.816;-0.026;2023-02-17T05:18:02;101227.93;;;21.84;35.62
69239;BME280;56349;51.816;-0.026;2023-02-17T05:20:27;101234.84;;;21.61;35.69
69239;BME280;56349;51.816;-0.026;2023-02-17T05:22:52;101229.11;;;21.81;35.86
69239;BME280;56349;51.816;-0.026;2023-02-17T05:25:18;101234.95;;;21.80;36.02
69239;BME280;56349;51.816;-0.026;2023-02-17T05:27:44;101237.67;;;21.59;36.12
69239;BME280;56349;51.816;-0.026;2023-02-17T05:30:11;101245.89;;;21.82;36.33
69239;BME280;56349;51.816;-0.026;2023-02-17T05:32:36;101248.56;;;21.82;36.47
69239;BME280;56349;51.816;-0.026;2023-02-17T05:35:02;101252.76;;;21.60;36.58
69239;BME280;56349;51.816;-0.026;2023-02-17T05:37:28;101244.17;;;21.63;36.67
69239;BME280;56349;51.816;-0.026;2023-02-17T05:39:54;101243.15;;;21.66;36.81
69239;BME280;56349;51.816;-0.026;2023-02-17T05:42:20;101235.50;;;21.70;36.95
69239;BME280;56349;51.816;-0.026;2023-02-17T05:44:46;101240.40;;;21.94;37.07
69239;BME280;56349;51.816;-0.026;2023-02-17T05:47:12;101236.74;;;21.75;37.15
69239;BME280;56349;51.816;-0.026;2023-02-17T05:49:38;101240.62;;;21.77;37.17
69239;BME280;56349;51.816;-0.026;2023-02-17T05:52:04;101228.95;;;21.79;37.17
69239;BME280;56349;51.816;-0.026;2023-02-17T05:54:30;101228.53;;;21.82;37.14
69239;BME280;56349;51.816;-0.026;2023-02-17T05:56:55;101209.57;;;21.85;37.22
69239;BME280;56349;51.816;-0.026;2023-02-17T05:59:21;101217.01;;;22.10;37.27
69239;BME280;56349;51.816;-0.026;2023-02-17T06:01:47;101207.31;;;21.89;37.16
69239;BME280;56349;51.816;-0.026;2023-02-17T06:04:13;101196.26;;;21.91;37.18
69239;BME280;56349;51.816;-0.026;2023-02-17T06:06:39;101199.48;;;22.18;37.20
69239;BME280;56349;51.816;-0.026;2023-02-17T06:09:04;101192.42;;;22.03;37.16
69239;BME280;56349;51.816;-0.026;2023-02-17T06:11:30;101193.64;;;22.53;37.25
69239;BME280;56349;51.816;-0.026;2023-02-17T06:13:56;101194.28;;;21.83;37.33
69239;BME280;56349;51.816;-0.026;2023-02-17T06:16:22;101193.53;;;22.07;37.22
69239;BME280;56349;51.816;-0.026;2023-02-17T06:18:48;101191.10;;;22.09;37.26
69239;BME280;56349;51.816;-0.026;2023-02-17T06:21:14;101189.75;;;22.12;37.23
69239;BME280;56349;51.816;-0.026;2023-02-17T06:23:40;101189.50;;;22.15;37.25
69239;BME280;56349;51.816;-0.026;2023-02-17T06:26:06;101182.51;;;22.17;37.14
69239;BME280;56349;51.816;-0.026;2023-02-17T06:28:32;101177.03;;;22.20;37.05
69239;BME280;56349;51.816;-0.026;2023-02-17T06:30:58;101180.39;;;22.21;37.05
69239;BME280;56349;51.816;-0.026;2023-02-17T06:33:24;101180.04;;;22.21;37.08
69239;BME280;56349;51.816;-0.026;2023-02-17T06:35:51;101178.85;;;22.22;37.01
69239;BME280;56349;51.816;-0.026;2023-02-17T06:38:16;101184.66;;;22.24;36.95
69239;BME280;56349;51.816;-0.026;2023-02-17T06:40:42;101182.00;;;22.26;36.85
69239;BME280;56349;51.816;-0.026;2023-02-17T06:43:07;101182.79;;;22.28;36.84
69239;BME280;56349;51.816;-0.026;2023-02-17T06:45:33;101192.75;;;22.28;36.79
69239;BME280;56349;51.816;-0.026;2023-02-17T06:47:59;101199.84;;;22.25;36.82
69239;BME280;56349;51.816;-0.026;2023-02-17T06:50:25;101194.82;;;22.24;36.71
69239;BME280;56349;51.816;-0.026;2023-02-17T06:52:51;101199.92;;;22.23;36.69
69239;BME280;56349;51.816;-0.026;2023-02-17T06:55:17;101200.08;;;22.24;36.53
69239;BME280;56349;51.816;-0.026;2023-02-17T06:57:43;101195.46;;;22.00;36.49
69239;BME280;56349;51.816;-0.026;2023-02-17T07:00:10;101190.56;;;22.19;36.49
69239;BME280;56349;51.816;-0.026;2023-02-17T07:02:36;101189.32;;;22.16;36.51
69239;BME280;56349;51.816;-0.026;2023-02-17T07:05:01;101203.76;;;22.13;36.48
69239;BME280;56349;51.816;-0.026;2023-02-17T07:07:27;101208.41;;;22.11;36.45
69239;BME280;56349;51.816;-0.026;2023-02-17T07:09:53;101214.90;;;22.08;36.39
69239;BME280;56349;51.816;-0.026;2023-02-17T07:12:19;101218.60;;;22.07;36.29
69239;BME280;56349;51.816;-0.026;2023-02-17T07:14:45;101222.30;;;22.03;36.36
69239;BME280;56349;51.816;-0.026;2023-02-17T07:17:11;101215.62;;;22.01;36.23
69239;BME280;56349;51.816;-0.026;2023-02-17T07:19:37;101218.77;;;21.99;36.21
69239;BME280;56349;51.816;-0.026;2023-02-17T07:22:03;101229.03;;;22.00;36.27
69239;BME280;56349;51.816;-0.026;2023-02-17T07:24:30;101234.79;;;22.02;36.49
69239;BME280;56349;51.816;-0.026;2023-02-17T07:26:56;101236.85;;;22.09;36.65
69239;BME280;56349;51.816;-0.026;2023-02-17T07:29:22;101237.01;;;22.25;36.78
69239;BME280;56349;51.816;-0.026;2023-02-17T07:31:48;101244.35;;;22.25;36.61
69239;BME280;56349;51.816;-0.026;2023-02-17T07:34:14;101246.72;;;22.24;36.54
69239;BME280;56349;51.816;-0.026;2023-02-17T07:36:40;101243.88;;;22.54;36.35
69239;BME280;56349;51.816;-0.026;2023-02-17T07:39:05;101249.95;;;22.84;36.00
69239;BME280;56349;51.816;-0.026;2023-02-17T07:41:31;101255.09;;;23.19;35.67
69239;BME280;56349;51.816;-0.026;2023-02-17T07:43:58;101258.06;;;23.30;35.30
69239;BME280;56349;51.816;-0.026;2023-02-17T07:46:23;101278.14;;;23.38;34.96
69239;BME280;56349;51.816;-0.026;2023-02-17T07:48:49;101290.58;;;23.70;34.53
69239;BME280;56349;51.816;-0.026;2023-02-17T07:51:17;101285.55;;;23.56;34.18
69239;BME280;56349;51.816;-0.026;2023-02-17T07:53:41;101293.91;;;24.09;33.83
69239;BME280;56349;51.816;-0.026;2023-02-17T07:56:08;101302.26;;;24.18;33.53
69239;BME280;56349;51.816;-0.026;2023-02-17T07:58:33;101310.62;;;24.47;33.18
69239;BME280;56349;51.816;-0.026;2023-02-17T08:01:04;101313.67;;;24.75;32.84
69239;BME280;56349;51.816;-0.026;2023-02-17T08:03:24;101309.71;;;24.75;32.42
69239;BME280;56349;51.816;-0.026;2023-02-17T08:05:50;101311.51;;;25.01;32.09
69239;BME280;56349;51.816;-0.026;2023-02-17T08:08:16;101308.36;;;25.24;31.78
69239;BME280;56349;51.816;-0.026;2023-02-17T08:10:42;101300.11;;;25.25;31.51
69239;BME280;56349;51.816;-0.026;2023-02-17T08:13:10;101284.49;;;25.67;31.22
69239;BME280;56349;51.816;-0.026;2023-02-17T08:15:34;101285.21;;;25.64;31.01
69239;BME280;56349;51.816;-0.026;2023-02-17T08:17:58;101296.50;;;25.82;30.87
69239;BME280;56349;51.816;-0.026;2023-02-17T08:20:25;101305.13;;;25.98;30.62
69239;BME280;56349;51.816;-0.026;2023-02-17T08:22:51;101305.44;;;25.64;30.43
69239;BME280;56349;51.816;-0.026;2023-02-17T08:25:17;101302.58;;;26.04;30.20
69239;BME280;56349;51.816;-0.026;2023-02-17T08:27:42;101299.91;;;26.16;30.03
69239;BME280;56349;51.816;-0.026;2023-02-17T08:30:09;101299.37;;;26.01;29.82
69239;BME280;56349;51.816;-0.026;2023-02-17T08:32:34;101309.21;;;26.39;29.70
69239;BME280;56349;51.816;-0.026;2023-02-17T08:35:00;101312.89;;;26.23;29.48
69239;BME280;56349;51.816;-0.026;2023-02-17T08:37:26;101308.49;;;26.31;29.35
69239;BME280;56349;51.816;-0.026;2023-02-17T08:39:51;101304.23;;;26.39;29.16
69239;BME280;56349;51.816;-0.026;2023-02-17T08:42:17;101297.23;;;26.44;29.05
69239;BME280;56349;51.816;-0.026;2023-02-17T08:44:43;101287.31;;;26.51;28.88
69239;BME280;56349;51.816;-0.026;2023-02-17T08:47:09;101284.41;;;26.56;28.75
69239;BME280;56349;51.816;-0.026;2023-02-17T08:49:35;101282.43;;;26.63;28.66
69239;BME280;56349;51.816;-0.026;2023-02-17T08:52:01;101279.65;;;26.69;28.52
69239;BME280;56349;51.816;-0.026;2023-02-17T08:54:26;101271.46;;;26.51;28.44
69239;BME280;56349;51.816;-0.026;2023-02-17T08:56:52;101265.05;;;26.59;28.35
69239;BME280;56349;51.816;-0.026;2023-02-17T08:59:18;101271.15;;;26.64;28.35
69239;BME280;56349;51.816;-0.026;2023-02-17T09:01:43;101276.60;;;26.47;28.23
69239;BME280;56349;51.816;-0.026;2023-02-17T09:04:11;101280.94;;;26.80;28.16
69239;BME280;56349;51.816;-0.026;2023-02-17T09:06:37;101277.24;;;26.83;28.05
69239;BME280;56349;51.816;-0.026;2023-02-17T09:09:00;101273.02;;;26.86;27.98
69239;BME280;56349;51.816;-0.026;2023-02-17T09:11:25;101264.24;;;27.12;27.89
69239;BME280;56349;51.816;-0.026;2023-02-17T09:13:51;101263.38;;;26.93;27.91
69239;BME280;56349;51.816;-0.026;2023-02-17T09:16:17;101265.52;;;26.97;27.90
69239;BME280;56349;51.816;-0.026;2023-02-17T09:18:43;101268.79;;;27.27;27.80
69239;BME280;56349;51.816;-0.026;2023-02-17T09:21:11;101258.78;;;27.32;27.76
69239;BME280;56349;51.816;-0.026;2023-02-17T09:23:35;101271.11;;;26.87;27.69
69239;BME280;56349;51.816;-0.026;2023-02-17T09:26:01;101279.92;;;27.21;27.75
69239;BME280;56349;51.816;-0.026;2023-02-17T09:28:26;101281.62;;;27.27;27.65
69239;BME280;56349;51.816;-0.026;2023-02-17T09:30:52;101290.16;;;27.32;27.53
69239;BME280;56349;51.816;-0.026;2023-02-17T09:33:18;101295.47;;;27.35;27.42
69239;BME280;56349;51.816;-0.026;2023-02-17T09:35:44;101296.66;;;27.37;27.33
69239;BME280;56349;51.816;-0.026;2023-02-17T09:38:10;101296.17;;;27.14;27.28
69239;BME280;56349;51.816;-0.026;2023-02-17T09:40:42;101287.98;;;27.17;27.21
69239;BME280;56349;51.816;-0.026;2023-02-17T09:43:02;101287.29;;;27.17;27.15
69239;BME280;56349;51.816;-0.026;2023-02-17T09:45:33;101278.19;;;27.48;27.10
69239;BME280;56349;51.816;-0.026;2023-02-17T09:47:56;101276.98;;;27.24;27.07
69239;BME280;56349;51.816;-0.026;2023-02-17T09:50:22;101270.67;;;27.26;26.99
69239;BME280;56349;51.816;-0.026;2023-02-17T09:52:51;101275.26;;;27.28;26.98
69239;BME280;56349;51.816;-0.026;2023-02-17T09:55:15;101274.01;;;27.27;26.99
69239;BME280;56349;51.816;-0.026;2023-02-17T09:57:43;101269.11;;;27.25;27.03
69239;BME280;56349;51.816;-0.026;2023-02-17T10:00:08;101270.19;;;27.25;27.05
69239;BME280;56349;51.816;-0.026;2023-02-17T10:02:34;101265.65;;;27.26;27.15
69239;BME280;56349;51.816;-0.026;2023-02-17T10:04:56;101270.95;;;27.56;27.04
69239;BME280;56349;51.816;-0.026;2023-02-17T10:07:26;101271.11;;;27.32;27.05
69239;BME280;56349;51.816;-0.026;2023-02-17T10:09:50;101273.88;;;27.33;27.03
69239;BME280;56349;51.816;-0.026;2023-02-17T10:12:17;101267.19;;;27.35;27.04
69239;BME280;56349;51.816;-0.026;2023-02-17T10:14:41;101267.88;;;27.38;26.99
69239;BME280;56349;51.816;-0.026;2023-02-17T10:17:09;101270.59;;;27.40;27.00
69239;BME280;56349;51.816;-0.026;2023-02-17T10:19:33;101271.58;;;27.43;27.00
69239;BME280;56349;51.816;-0.026;2023-02-17T10:22:01;101262.23;;;27.48;26.96
69239;BME280;56349;51.816;-0.026;2023-02-17T10:24:20;101277.23;;;27.54;26.94
69239;BME280;56349;51.816;-0.026;2023-02-17T10:26:55;101281.51;;;27.52;26.69
69239;BME280;56349;51.816;-0.026;2023-02-17T10:29:18;101292.23;;;27.32;26.66
69239;BME280;56349;51.816;-0.026;2023-02-17T10:31:43;101290.97;;;27.53;26.32
69239;BME280;56349;51.816;-0.026;2023-02-17T10:34:04;101293.26;;;27.48;26.14
69239;BME280;56349;51.816;-0.026;2023-02-17T10:36:35;101298.54;;;27.39;26.05
69239;BME280;56349;51.816;-0.026;2023-02-17T10:38:58;101289.53;;;27.59;25.98
69239;BME280;56349;51.816;-0.026;2023-02-17T10:41:23;101296.36;;;27.30;26.07
69239;BME280;56349;51.816;-0.026;2023-02-17T10:43:44;101291.77;;;27.25;25.93
69239;BME280;56349;51.816;-0.026;2023-02-17T10:46:12;101298.67;;;27.16;25.80
69239;BME280;56349;51.816;-0.026;2023-02-17T10:48:38;101301.62;;;27.08;25.55
69239;BME280;56349;51.816;-0.026;2023-02-17T10:51:00;101307.82;;;27.47;25.52
69239;BME280;56349;51.816;-0.026;2023-02-17T10:53:29;101303.57;;;26.89;25.47
69239;BME280;56349;51.816;-0.026;2023-02-17T10:55:56;101314.36;;;27.32;25.72
69239;BME280;56349;51.816;-0.026;2023-02-17T10:58:20;101321.61;;;27.11;25.61
69239;BME280;56349;51.816;-0.026;2023-02-17T11:00:42;101325.55;;;26.81;25.50
69239;BME280;56349;51.816;-0.026;2023-02-17T11:05:34;101328.65;;;27.03;25.43
69239;BME280;56349;51.816;-0.026;2023-02-17T11:08:02;101335.52;;;27.12;25.65
69239;BME280;56349;51.816;-0.026;2023-02-17T11:10:28;101331.33;;;27.16;25.33
69239;BME280;56349;51.816;-0.026;2023-02-17T11:12:50;101352.50;;;26.83;25.41
69239;BME280;56349;51.816;-0.026;2023-02-17T11:15:17;101336.06;;;27.00;25.34
69239;BME280;56349;51.816;-0.026;2023-02-17T11:17:42;101334.35;;;26.91;25.33
69239;BME280;56349;51.816;-0.026;2023-02-17T11:22:34;101333.37;;;26.86;25.36
69239;BME280;56349;51.816;-0.026;2023-02-17T11:24:58;101328.16;;;26.76;25.22
69239;BME280;56349;51.816;-0.026;2023-02-17T11:27:24;101328.17;;;26.37;25.25
69239;BME280;56349;51.816;-0.026;2023-02-17T11:29:49;101321.78;;;26.48;25.42
69239;BME280;56349;51.816;-0.026;2023-02-17T11:32:14;101315.42;;;26.55;25.48
69239;BME280;56349;51.816;-0.026;2023-02-17T11:34:42;101313.06;;;26.66;25.53
69239;BME280;56349;51.816;-0.026;2023-02-17T11:37:17;101313.49;;;26.81;25.52
69239;BME280;56349;51.816;-0.026;2023-02-17T11:39:37;101328.01;;;27.15;25.52
69239;BME280;56349;51.816;-0.026;2023-02-17T11:41:57;101328.94;;;27.23;25.50
69239;BME280;56349;51.816;-0.026;2023-02-17T11:44:24;101328.25;;;27.01;25.47
69239;BME280;56349;51.816;-0.026;2023-02-17T11:46:54;101327.41;;;27.06;25.43
69239;BME280;56349;51.816;-0.026;2023-02-17T11:51:52;101330.70;;;26.81;25.49
69239;BME280;56349;51.816;-0.026;2023-02-17T11:54:14;101342.37;;;27.32;25.49
69239;BME280;56349;51.816;-0.026;2023-02-17T11:56:34;101339.39;;;26.93;25.46
69239;BME280;56349;51.816;-0.026;2023-02-17T12:01:40;101341.66;;;27.31;25.53
69239;BME280;56349;51.816;-0.026;2023-02-17T12:04:01;101343.02;;;27.08;25.49
69239;BME280;56349;51.816;-0.026;2023-02-17T12:06:16;101346.31;;;27.09;25.59
69239;BME280;56349;51.816;-0.026;2023-02-17T12:08:48;101338.85;;;27.40;25.60
69239;BME280;56349;51.816;-0.026;2023-02-17T12:11:12;101353.90;;;27.14;25.67
69239;BME280;56349;51.816;-0.026;2023-02-17T12:13:39;101362.01;;;27.15;25.75
69239;BME280;56349;51.816;-0.026;2023-02-17T12:16:08;101382.06;;;27.44;25.76
69239;BME280;56349;51.816;-0.026;2023-02-17T12:18:32;101380.98;;;27.16;25.64
69239;BME280;56349;51.816;-0.026;2023-02-17T12:20:49;101386.50;;;27.21;25.70
69239;BME280;56349;51.816;-0.026;2023-02-17T12:23:25;101378.66;;;27.25;25.74
69239;BME280;56349;51.816;-0.026;2023-02-17T12:25:41;101393.04;;;27.34;25.80
69239;BME280;56349;51.816;-0.026;2023-02-17T12:28:15;101385.84;;;27.45;25.94
69239;BME280;56349;51.816;-0.026;2023-02-17T12:30:41;101391.38;;;27.52;25.94
69239;BME280;56349;51.816;-0.026;2023-02-17T12:33:07;101387.64;;;27.56;26.10
69239;BME280;56349;51.816;-0.026;2023-02-17T12:35:23;101399.06;;;27.65;26.02
69239;BME280;56349;51.816;-0.026;2023-02-17T12:37:52;101403.40;;;27.75;26.02
69239;BME280;56349;51.816;-0.026;2023-02-17T12:40:24;101399.54;;;27.79;25.99
69239;BME280;56349;51.816;-0.026;2023-02-17T12:42:42;101413.89;;;27.82;26.10
69239;BME280;56349;51.816;-0.026;2023-02-17T12:45:14;101418.13;;;27.86;26.11
69239;BME280;56349;51.816;-0.026;2023-02-17T12:47:36;101430.35;;;27.90;26.13
69239;BME280;56349;51.816;-0.026;2023-02-17T12:50:02;101434.77;;;27.92;26.19
69239;BME280;56349;51.816;-0.026;2023-02-17T12:52:25;101445.54;;;27.74;26.22